地図

経路データ

SID SEASON NUMBER BASIN SUBBASIN NAME ISO_TIME NATURE LAT LON WMO_WIND WMO_PRES WMO_AGENCY TRACK_TYPE DIST2LAND LANDFALL IFLAG USA_AGENCY USA_ATCF_ID USA_LAT USA_LON USA_RECORD USA_STATUS USA_WIND USA_PRES USA_SSHS USA_R34_NE USA_R34_SE USA_R34_SW USA_R34_NW USA_R50_NE USA_R50_SE USA_R50_SW USA_R50_NW USA_R64_NE USA_R64_SE USA_R64_SW USA_R64_NW USA_POCI USA_ROCI USA_RMW USA_EYE TOKYO_LAT TOKYO_LON TOKYO_GRADE TOKYO_WIND TOKYO_PRES TOKYO_R50_DIR TOKYO_R50_LONG TOKYO_R50_SHORT TOKYO_R30_DIR TOKYO_R30_LONG TOKYO_R30_SHORT TOKYO_LAND CMA_LAT CMA_LON CMA_CAT CMA_WIND CMA_PRES HKO_LAT HKO_LON HKO_CAT HKO_WIND HKO_PRES NEWDELHI_LAT NEWDELHI_LON NEWDELHI_GRADE NEWDELHI_WIND NEWDELHI_PRES NEWDELHI_CI NEWDELHI_DP NEWDELHI_POCI REUNION_LAT REUNION_LON REUNION_TYPE REUNION_WIND REUNION_PRES REUNION_TNUM REUNION_CI REUNION_RMW REUNION_R34_NE REUNION_R34_SE REUNION_R34_SW REUNION_R34_NW REUNION_R50_NE REUNION_R50_SE REUNION_R50_SW REUNION_R50_NW REUNION_R64_NE REUNION_R64_SE REUNION_R64_SW REUNION_R64_NW BOM_LAT BOM_LON BOM_TYPE BOM_WIND BOM_PRES BOM_TNUM BOM_CI BOM_RMW BOM_R34_NE BOM_R34_SE BOM_R34_SW BOM_R34_NW BOM_R50_NE BOM_R50_SE BOM_R50_SW BOM_R50_NW BOM_R64_NE BOM_R64_SE BOM_R64_SW BOM_R64_NW BOM_ROCI BOM_POCI BOM_EYE BOM_POS_METHOD BOM_PRES_METHOD NADI_LAT NADI_LON NADI_CAT NADI_WIND NADI_PRES WELLINGTON_LAT WELLINGTON_LON WELLINGTON_WIND WELLINGTON_PRES DS824_LAT DS824_LON DS824_STAGE DS824_WIND DS824_PRES TD9636_LAT TD9636_LON TD9636_STAGE TD9636_WIND TD9636_PRES TD9635_LAT TD9635_LON TD9635_WIND TD9635_PRES TD9635_ROCI NEUMANN_LAT NEUMANN_LON NEUMANN_CLASS NEUMANN_WIND NEUMANN_PRES MLC_LAT MLC_LON MLC_CLASS MLC_WIND MLC_PRES USA_GUST BOM_GUST BOM_GUST_PER REUNION_GUST REUNION_GUST_PER USA_SEAHGT USA_SEARAD_NE USA_SEARAD_SE USA_SEARAD_SW USA_SEARAD_NW STORM_SPEED STORM_DIR
1940141N22289 1940 25 NA NA NOT_NAMED 1940-05-19 12:00:00 TS 22.0000 -71.0000 35 hurdat_atl main 225 220 O_____________ hurdat_atl AL011940 22.0000 -71.0000 TS 35 0 8 338
1940141N22289 1940 25 NA NA NOT_NAMED 1940-05-19 15:00:00 TS 22.3525 -71.1598 main 229 229 P_____________ AL011940 22.3525 -71.1598 TS 35 0 8 338
1940141N22289 1940 25 NA NA NOT_NAMED 1940-05-19 18:00:00 TS 22.7000 -71.3000 35 hurdat_atl main 242 242 O_____________ hurdat_atl AL011940 22.7000 -71.3000 TS 35 0 7 342
1940141N22289 1940 25 NA NA NOT_NAMED 1940-05-19 21:00:00 TS 23.0425 -71.4076 main 260 260 P_____________ AL011940 23.0425 -71.4076 TS 35 0 7 345
1940141N22289 1940 25 NA NA NOT_NAMED 1940-05-20 00:00:00 TS 23.4000 -71.5000 35 hurdat_atl main 290 290 O_____________ hurdat_atl AL011940 23.4000 -71.5000 TS 35 0 8 347
1940141N22289 1940 25 NA NA NOT_NAMED 1940-05-20 03:00:00 TS 23.7925 -71.6000 main 324 324 P_____________ AL011940 23.7925 -71.6000 TS 35 0 8 347
1940141N22289 1940 25 NA NA NOT_NAMED 1940-05-20 06:00:00 TS 24.2000 -71.7000 35 hurdat_atl main 360 360 O_____________ hurdat_atl AL011940 24.2000 -71.7000 TS 35 0 8 347
1940141N22289 1940 25 NA NA NOT_NAMED 1940-05-20 09:00:00 TS 24.5850 -71.8001 main 399 399 P_____________ AL011940 24.5850 -71.8001 TS 37 0 8 347
1940141N22289 1940 25 NA NA NOT_NAMED 1940-05-20 12:00:00 TS 25.0000 -71.9000 40 hurdat_atl main 439 439 O_____________ hurdat_atl AL011940 25.0000 -71.9000 TS 40 0 9 348
1940141N22289 1940 25 NA NA NOT_NAMED 1940-05-20 15:00:00 TS 25.4850 -72.0075 main 491 491 P_____________ AL011940 25.4850 -72.0075 TS 40 0 10 350
1940141N22289 1940 25 NA NA NOT_NAMED 1940-05-20 18:00:00 TS 26.0000 -72.1000 40 hurdat_atl main 544 544 O_____________ hurdat_atl AL011940 26.0000 -72.1000 TS 40 0 10 352
1940141N22289 1940 25 NA NA NOT_NAMED 1940-05-20 21:00:00 TS 26.5000 -72.1576 main 595 595 P_____________ AL011940 26.5000 -72.1576 TS 42 0 10 355
1940141N22289 1940 25 NA NA NOT_NAMED 1940-05-21 00:00:00 TS 27.0000 -72.2000 45 hurdat_atl main 615 615 O_____________ hurdat_atl AL011940 27.0000 -72.2000 TS 45 0 10 355
1940141N22289 1940 25 NA NA NOT_NAMED 1940-05-21 03:00:00 TS 27.5000 -72.2500 main 627 627 P_____________ AL011940 27.5000 -72.2500 TS 45 0 10 355
1940141N22289 1940 25 NA NA NOT_NAMED 1940-05-21 06:00:00 TS 28.0000 -72.3000 45 hurdat_atl main 652 652 O_____________ hurdat_atl AL011940 28.0000 -72.3000 TS 45 0 10 355
1940141N22289 1940 25 NA NA NOT_NAMED 1940-05-21 09:00:00 TS 28.4925 -72.3501 main 672 672 P_____________ AL011940 28.4925 -72.3501 TS 47 0 10 355
1940141N22289 1940 25 NA NA NOT_NAMED 1940-05-21 12:00:00 TS 29.0000 -72.4000 50 hurdat_atl main 704 696 O_____________ hurdat_atl AL011940 29.0000 -72.4000 TS 50 0 10 356
1940141N22289 1940 25 NA NA NOT_NAMED 1940-05-21 15:00:00 TS 29.5200 -72.4427 main 696 635 P_____________ AL011940 29.5200 -72.4427 TS 50 0 11 355
1940141N22289 1940 25 NA NA NOT_NAMED 1940-05-21 18:00:00 TS 30.1000 -72.5000 50 hurdat_atl main 635 575 O_____________ hurdat_atl AL011940 30.1000 -72.5000 TS 50 0 12 354
1940141N22289 1940 25 NA NA NOT_NAMED 1940-05-21 21:00:00 TS 30.7326 -72.5999 main 575 502 P_____________ AL011940 30.7326 -72.5999 TS 52 0 14 353
1940141N22289 1940 25 NA NA NOT_NAMED 1940-05-22 00:00:00 TS 31.5000 -72.7000 55 hurdat_atl main 502 426 O_____________ hurdat_atl AL011940 31.5000 -72.7000 TS 55 0 18 355
1940141N22289 1940 25 NA NA NOT_NAMED 1940-05-22 03:00:00 TS 32.4925 -72.7650 main 419 361 P_____________ AL011940 32.4925 -72.7650 TS 55 0 20 358
1940141N22289 1940 25 NA NA NOT_NAMED 1940-05-22 06:00:00 TS 33.5000 -72.8000 55 hurdat_atl main 353 296 O_____________ hurdat_atl AL011940 33.5000 -72.8000 TS 55 0 19 359
1940141N22289 1940 25 NA NA NOT_NAMED 1940-05-22 09:00:00 TS 34.3549 -72.8225 main 290 259 P_____________ AL011940 34.3549 -72.8225 TS 55 0 15 0
1940141N22289 1940 25 NA NA NOT_NAMED 1940-05-22 12:00:00 TS 35.0000 -72.8000 55 hurdat_atl main 259 249 O_____________ hurdat_atl AL011940 35.0000 -72.8000 TS 55 0 10 4
1940141N22289 1940 25 NA NA NOT_NAMED 1940-05-22 15:00:00 TS 35.3900 -72.7226 main 256 254 P_____________ AL011940 35.3900 -72.7226 TS 55 0 6 15
1940141N22289 1940 25 NA NA NOT_NAMED 1940-05-22 18:00:00 TS 35.6000 -72.6000 55 hurdat_atl main 262 261 O_____________ hurdat_atl AL011940 35.6000 -72.6000 TS 55 0 5 28
1940141N22289 1940 25 NA NA NOT_NAMED 1940-05-22 21:00:00 TS 35.7875 -72.4650 main 269 269 P_____________ AL011940 35.7875 -72.4650 TS 52 0 4 39
1940141N22289 1940 25 NA NA NOT_NAMED 1940-05-23 00:00:00 TS 35.9000 -72.3000 50 hurdat_atl main 287 287 O_____________ hurdat_atl AL011940 35.9000 -72.3000 TS 50 0 3 58
1940141N22289 1940 25 NA NA NOT_NAMED 1940-05-23 03:00:00 TS 35.9725 -72.1075 main 306 306 P_____________ AL011940 35.9725 -72.1075 TS 50 0 3 73
1940141N22289 1940 25 NA NA NOT_NAMED 1940-05-23 06:00:00 TS 36.0000 -71.9000 50 hurdat_atl main 324 324 O_____________ hurdat_atl AL011940 36.0000 -71.9000 TS 50 0 3 84
1940141N22289 1940 25 NA NA NOT_NAMED 1940-05-23 09:00:00 TS 36.0075 -71.6999 main 342 342 P_____________ AL011940 36.0075 -71.6999 TS 50 0 3 90
1940141N22289 1940 25 NA NA NOT_NAMED 1940-05-23 12:00:00 TS 36.0000 -71.5000 50 hurdat_atl main 360 360 O_____________ hurdat_atl AL011940 36.0000 -71.5000 TS 50 0 3 90
1940141N22289 1940 25 NA NA NOT_NAMED 1940-05-23 15:00:00 TS 36.0075 -71.3001 main 378 378 P_____________ AL011940 36.0075 -71.3001 TS 47 0 3 90
1940141N22289 1940 25 NA NA NOT_NAMED 1940-05-23 18:00:00 TS 36.0000 -71.1000 45 hurdat_atl main 395 395 O_____________ hurdat_atl AL011940 36.0000 -71.1000 TS 45 0 3 97
1940141N22289 1940 25 NA NA NOT_NAMED 1940-05-23 21:00:00 TS 35.9650 -70.9000 main 413 413 P_____________ AL011940 35.9650 -70.9000 TS 42 0 3 107
1940141N22289 1940 25 NA NA NOT_NAMED 1940-05-24 00:00:00 TS 35.9000 -70.7000 40 hurdat_atl main 431 431 O_____________ hurdat_atl AL011940 35.9000 -70.7000 TS 40 0 4 118
1940141N22289 1940 25 NA NA NOT_NAMED 1940-05-24 03:00:00 TS 35.7924 -70.5074 main 449 449 P_____________ AL011940 35.7924 -70.5074 TS 40 0 4 122
1940141N22289 1940 25 NA NA NOT_NAMED 1940-05-24 06:00:00 TS 35.7000 -70.3000 40 hurdat_atl main 468 468 O_____________ hurdat_atl AL011940 35.7000 -70.3000 TS 40 0 4 112
1940141N22289 1940 25 NA NA NOT_NAMED 1940-05-24 09:00:00 TS 35.6474 -70.0647 main 486 486 P_____________ AL011940 35.6474 -70.0647 TS 37 0 4 90
1940141N22289 1940 25 NA NA NOT_NAMED 1940-05-24 12:00:00 TS 35.7000 -69.8000 35 hurdat_atl main 513 513 O_____________ hurdat_atl AL011940 35.7000 -69.8000 TS 35 0 5 59
1940141N22289 1940 25 NA NA NOT_NAMED 1940-05-24 15:00:00 TS 35.9124 -69.5152 main 539 539 P_____________ AL011940 35.9124 -69.5152 TS 35 0 7 44
1940141N22289 1940 25 NA NA NOT_NAMED 1940-05-24 18:00:00 TS 36.2000 -69.2000 35 hurdat_atl main 567 567 O_____________ hurdat_atl AL011940 36.2000 -69.2000 TS 35 0 8 45
1940141N22289 1940 25 NA NA NOT_NAMED 1940-05-24 21:00:00 TS 36.4425 -68.8498 main 590 564 P_____________ AL011940 36.4425 -68.8498 TS 35 0 8 48
1940141N22289 1940 25 NA NA NOT_NAMED 1940-05-25 00:00:00 TS 36.7000 -68.5000 35 hurdat_atl main 566 544 O_____________ hurdat_atl AL011940 36.7000 -68.5000 TS 35 0 8 44
1940141N22289 1940 25 NA NA NOT_NAMED 1940-05-25 03:00:00 TS 36.9924 -68.1923 main 544 521 P_____________ AL011940 36.9924 -68.1923 TS 35 0 8 39
1940141N22289 1940 25 NA NA NOT_NAMED 1940-05-25 06:00:00 TS 37.3000 -67.9000 35 hurdat_atl main 521 500 O_____________ hurdat_atl AL011940 37.3000 -67.9000 TS 35 0 8 38
1940141N22289 1940 25 NA NA NOT_NAMED 1940-05-25 09:00:00 TS 37.5999 -67.5998 main 500 481 P_____________ AL011940 37.5999 -67.5998 TS 32 -1 8 38
1940141N22289 1940 25 NA NA NOT_NAMED 1940-05-25 12:00:00 ET 37.9000 -67.3000 30 hurdat_atl main 481 465 O_____________ hurdat_atl AL011940 37.9000 -67.3000 EX 30 -4 8 39
1940141N22289 1940 25 NA NA NOT_NAMED 1940-05-25 15:00:00 ET 38.2000 -66.9923 main 465 452 P_____________ AL011940 38.2000 -66.9923 EX 30 -4 8 38
1940141N22289 1940 25 NA NA NOT_NAMED 1940-05-25 18:00:00 ET 38.5000 -66.7000 30 hurdat_atl main 452 437 O_____________ hurdat_atl AL011940 38.5000 -66.7000 EX 30 -4 7 35
1940141N22289 1940 25 NA NA NOT_NAMED 1940-05-25 21:00:00 ET 38.8074 -66.4423 main 443 431 P_____________ AL011940 38.8074 -66.4423 EX 30 -4 7 33
1940141N22289 1940 25 NA NA NOT_NAMED 1940-05-26 00:00:00 ET 39.1000 -66.2000 30 hurdat_atl main 431 430 O_____________ hurdat_atl AL011940 39.1000 -66.2000 EX 30 -4 7 35
1940141N22289 1940 25 NA NA NOT_NAMED 1940-05-26 03:00:00 ET 39.3499 -65.9497 main 436 429 P_____________ AL011940 39.3499 -65.9497 EX 30 -4 6 38
1940141N22289 1940 25 NA NA NOT_NAMED 1940-05-26 06:00:00 ET 39.6000 -65.7000 30 hurdat_atl main 430 400 O_____________ hurdat_atl AL011940 39.6000 -65.7000 EX 30 -4 6 35
1940141N22289 1940 25 NA NA NOT_NAMED 1940-05-26 09:00:00 ET 39.8697 -65.4791 main 400 367 P_____________ AL011940 39.8697 -65.4791 EX 30 -4 7 33
1940141N22289 1940 25 NA NA NOT_NAMED 1940-05-26 12:00:00 ET 40.2000 -65.2000 30 hurdat_atl main 367 324 O_____________ hurdat_atl AL011940 40.2000 -65.2000 EX 30 -4 9 35
1940141N22289 1940 25 NA NA NOT_NAMED 1940-05-26 15:00:00 ET 40.6123 -64.8019 main 325 279 P_____________ AL011940 40.6123 -64.8019 EX 30 -4 11 37
1940141N22289 1940 25 NA NA NOT_NAMED 1940-05-26 18:00:00 ET 41.1000 -64.3000 30 hurdat_atl main 279 244 O_____________ hurdat_atl AL011940 41.1000 -64.3000 EX 30 -4 13 38
1940141N22289 1940 25 NA NA NOT_NAMED 1940-05-26 21:00:00 ET 41.6195 -63.7510 main 244 224 P_____________ AL011940 41.6195 -63.7510 EX 27 -4 14 39
1940141N22289 1940 25 NA NA NOT_NAMED 1940-05-27 00:00:00 ET 42.2000 -63.1000 25 hurdat_atl main 224 202 O_____________ hurdat_atl AL011940 42.2000 -63.1000 EX 25 -4 16 41
1940141N22289 1940 25 NA NA NOT_NAMED 1940-05-27 03:00:00 ET 42.8364 -62.3366 main 206 164 P_____________ AL011940 42.8364 -62.3366 EX 22 -4 17 42
1940141N22289 1940 25 NA NA NOT_NAMED 1940-05-27 06:00:00 ET 43.5000 -61.5000 20 hurdat_atl main 164 O_____________ hurdat_atl AL011940 43.5000 -61.5000 EX 20 -4 18 42

IBTrACS Databaseについて

本データベースは、米国NOAAが公開する1842年以降の世界の熱帯低気圧のベストトラックデータアーカイブInternational Best Track Archive for Climate Stewardship (IBTrACS)を、ウェブで閲覧しやすい形式に変換したものです。

最終更新日:2021-12-06